ADDS METAR Data INFO
IDs: Format: Raw Decoded Include TAF

Data at: 2224 UTC 24 Jun 2018

KJES 242215Z AUTO 00000KT 10SM CLR 36/19 A2997 RMK AO2 T03560186
KJES 242155Z AUTO 00000KT 10SM CLR 36/19 A2997 RMK AO2 T03570190
KJES 242135Z AUTO 00000KT 10SM SCT060 36/19 A2998 RMK AO2 T03600189
KJES 242115Z AUTO 00000KT 10SM CLR 36/19 A2998 RMK AO2 T03600191
KJES 242055Z AUTO 00000KT 10SM SCT060 36/20 A2999 RMK AO2 T03640195
KJES 242035Z AUTO 00000KT 10SM CLR 36/20 A2999 RMK AO2 T03570202
KJES 242015Z AUTO 29005KT 10SM SCT003 SCT050 36/19 A2999 RMK AO2 T03610185
KJES 241955Z AUTO 00000KT 10SM SCT003 SCT050 SCT080 36/20 A3000 RMK AO2 T03560200
KJES 241935Z AUTO 28004KT 10SM SCT003 SCT050 36/20 A3000 RMK AO2 T03590198
KJES 241915Z AUTO 00000KT 10SM SCT050 36/21 A3000 RMK AO2 T03600206
KJES 241855Z AUTO 00000KT 10SM SCT003 SCT049 35/20 A3001 RMK AO2 T03540201
KJES 241835Z AUTO 28006KT 10SM SCT003 SCT049 35/20 A3002 RMK AO2 T03500203
KJES 241815Z AUTO 28007KT 10SM SCT003 35/21 A3002 RMK AO2 T03520207
KJES 241755Z AUTO 00000KT 10SM SCT003 SCT043 SCT050 35/21 A3003 RMK AO2 T03480207 10348 20257
KJES 241735Z AUTO 00000KT 10SM SCT043 SCT049 SCT055 34/22 A3003 RMK AO2 T03440217
KJES 241715Z AUTO 28004KT 10SM SCT040 35/22 A3004 RMK AO2 T03450216
KJES 241655Z AUTO 30008KT 10SM SCT003 BKN040 34/22 A3004 RMK AO2 T03400220
KJES 241635Z AUTO 28005KT 10SM BKN038 34/22 A3005 RMK AO2 T03360221
KJES 241615Z AUTO 29005KT 10SM SCT038 34/22 A3005 RMK AO2 T03360222
KJES 241555Z AUTO 28006KT 10SM SCT003 33/22 A3006 RMK AO2 T03300222
KJES 241535Z AUTO 29008KT 10SM SCT003 33/22 A3006 RMK AO2 T03280223
KJES 241515Z AUTO 00000KT 10SM CLR 32/23 A3006 RMK AO2 T03230227
KJES 241455Z AUTO 30007KT 10SM CLR 32/23 A3006 RMK AO2 T03210230
KJES 241435Z AUTO 00000KT 10SM SCT002 SCT024 32/23 A3006 RMK AO2 T03150230
KJES 241415Z AUTO 00000KT 10SM SCT002 SCT018 31/24 A3006 RMK AO2 T03110236
KJES 241355Z AUTO 00000KT 10SM CLR 31/24 A3005 RMK AO2 T03050238
KJES 241335Z AUTO 00000KT 10SM CLR 30/24 A3005 RMK AO2 T02990236
KJES 241315Z AUTO 00000KT 10SM CLR 29/24 A3005 RMK AO2 T02940236
KJES 241255Z AUTO 00000KT 10SM CLR 29/24 A3004 RMK AO2 T02890239
KJES 241235Z AUTO 30004KT 10SM CLR 28/24 A3004 RMK AO2 T02760238
KJES 241215Z AUTO 00000KT 10SM CLR 27/24 A3004 RMK AO2 T02650235
KJES 241155Z AUTO 00000KT 10SM SCT005 26/23 A3003 RMK AO2 T02570231 10258 20231
KJES 241135Z AUTO 00000KT 10SM CLR 25/23 A3003 RMK AO2 T02490227
KJES 241115Z AUTO 00000KT 7SM CLR 24/22 A3003 RMK AO2 T02380217
KJES 241055Z AUTO 00000KT 7SM CLR 24/22 A3002 RMK AO2 T02360215
KJES 241035Z AUTO 00000KT 7SM CLR 23/21 A3001 RMK AO2 T02320212
KJES 241015Z AUTO 00000KT 10SM CLR 23/21 A3000 RMK AO2 T02330213
KJES 240955Z AUTO 00000KT 7SM CLR 24/22 A3000 RMK AO2 T02370218
KJES 240935Z AUTO 00000KT 7SM CLR 24/22 A2999 RMK AO2 T02380218
KJES 240915Z AUTO 00000KT 10SM CLR 24/22 A2999 RMK AO2 T02410221
KJES 240855Z AUTO 00000KT 10SM CLR 24/22 A2998 RMK AO2 T02430222
KJES 240835Z AUTO 00000KT 7SM CLR 24/22 A2997 RMK AO2 T02420221
KJES 240815Z AUTO 00000KT 10SM CLR 25/22 A2997 RMK AO2 T02490222
KJES 240755Z AUTO 00000KT 10SM CLR 25/23 A2997 RMK AO2 T02520225
KJES 240735Z AUTO 00000KT 10SM CLR 25/23 A2996 RMK AO2 T02530226
KJES 240715Z AUTO 00000KT 10SM CLR 26/23 A2997 RMK AO2 T02550230
KJES 240655Z AUTO 00000KT 10SM CLR 26/23 A2997 RMK AO2 T02550231
KJES 240635Z AUTO 00000KT 10SM CLR 26/23 A2997 RMK AO2 T02570234
KJES 240615Z AUTO 00000KT 10SM CLR 26/23 A2997 RMK AO2 T02570234
KJES 240555Z AUTO 00000KT 10SM CLR 26/23 A2997 RMK AO2 T02570233 10298 20256 403530235
KJES 240535Z AUTO 00000KT 10SM CLR 26/24 A2997 RMK AO2 T02600235
KJES 240515Z AUTO 00000KT 10SM CLR 26/23 A2997 RMK AO2 T02600234
KJES 240455Z AUTO 00000KT 10SM CLR 26/23 A2998 RMK AO2 T02600232
KJES 240435Z AUTO 00000KT 10SM CLR 26/23 A2998 RMK AO2 T02600228
KJES 240415Z AUTO 00000KT 10SM CLR 26/22 A2998 RMK AO2 T02570223
KJES 240355Z AUTO 00000KT 10SM CLR 26/22 A2999 RMK AO2 T02610223
KJES 240335Z AUTO 00000KT 10SM CLR 26/22 A2998 RMK AO2 T02610222
KJES 240315Z AUTO 00000KT 10SM CLR 27/22 A2998 RMK AO2 T02650221
KJES 240255Z AUTO 00000KT 10SM CLR 27/22 A2998 RMK AO2 T02650221
KJES 240235Z AUTO 00000KT 10SM CLR 27/22 A2998 RMK AO2 T02650221
KJES 240215Z AUTO 00000KT 10SM CLR 27/22 A2998 RMK AO2 T02670221
KJES 240155Z AUTO 00000KT 10SM CLR 27/22 A2998 RMK AO2 T02700223
KJES 240135Z AUTO 00000KT 10SM CLR 27/22 A2998 RMK AO2 LTG DSNT SE T02710224
KJES 240115Z AUTO 00000KT 10SM SCT090 27/23 A2998 RMK AO2 T02720228
KJES 240055Z AUTO 00000KT 10SM SCT090 28/23 A2997 RMK AO2 LTG DSNT SE T02760226
KJES 240035Z AUTO 00000KT 10SM CLR 28/23 A2996 RMK AO2 LTG DSNT E AND SE T02830227
KJES 240015Z AUTO 00000KT 10SM CLR 29/23 A2995 RMK AO2 LTG DSNT E AND SE T02900226
KJES 232355Z AUTO 00000KT 10SM CLR 30/22 A2994 RMK AO2 LTG DSNT E AND SE T02990221 10353 20299
KJES 232335Z AUTO 07006KT 10SM SCT060 SCT070 31/22 A2995 RMK AO2 LTG DSNT E T03090220
KJES 232315Z AUTO 07007KT 10SM SCT060 BKN070 31/22 A2994 RMK AO2 LTG DSNT E T03140216
KJES 232255Z AUTO 00000KT 10SM BKN050 35/21 A2993 RMK AO2 LTG DSNT E T03470208
KJES 232235Z AUTO 00000KT 10SM SCT050 SCT070 34/21 A2993 RMK AO2 LTG DSNT NE T03400207
KJES 232215Z AUTO 00000KT 10SM SCT050 34/20 A2993 RMK AO2 T03440203
KJES 232155Z AUTO 29003KT 10SM SCT050 35/21 A2993 RMK AO2 T03470205
KJES 232135Z AUTO 00000KT 10SM SCT050 35/21 A2992 RMK AO2 LTG DSNT NE T03470211
KJES 232115Z AUTO 30010KT 10SM SCT050 35/21 A2993 RMK AO2 T03520206
KJES 232055Z AUTO 30008KT 10SM SCT046 35/21 A2993 RMK AO2 LTG DSNT NE T03490212
KJES 232035Z AUTO 30007KT 10SM CLR 35/21 A2993 RMK AO2 T03500213
KJES 232015Z AUTO 27006KT 10SM CLR 35/21 A2993 RMK AO2 LTG DSNT N AND NE T03470207
KJES 231955Z AUTO 28004KT 10SM SCT044 34/21 A2994 RMK AO2 T03430209
KJES 231935Z AUTO 26006KT 10SM SCT044 34/21 A2994 RMK AO2 T03430211
KJES 231915Z AUTO 28005KT 10SM SCT046 SCT050 35/22 A2995 RMK AO2 LTG DSNT N T03510215
KJES 231855Z AUTO 29010G15KT 10SM CLR 35/21 A2995 RMK AO2 T03450212
KJES 231835Z AUTO 28007KT 10SM SCT046 SCT050 35/22 A2995 RMK AO2 T03450215
KJES 231815Z AUTO 28004KT 10SM SCT046 BKN050 34/21 A2996 RMK AO2 T03420211
KJES 231755Z AUTO 00000KT 10SM SCT042 SCT048 34/21 A2996 RMK AO2 T03410213 10342 20251
KJES 231735Z AUTO 29008KT 10SM SCT038 34/22 A2997 RMK AO2 T03370216
KJES 231715Z AUTO 29011G15KT 10SM BKN038 33/22 A2998 RMK AO2 T03340218
KJES 231655Z AUTO 27005KT 10SM BKN034 BKN040 32/22 A2998 RMK AO2 T03230222
KJES 231635Z AUTO 27008KT 240V310 10SM SCT032 SCT039 32/22 A2998 RMK AO2 T03240224
KJES 231615Z AUTO 30006KT 10SM SCT030 BKN037 BKN043 32/23 A2999 RMK AO2 T03190230
KJES 231555Z AUTO 30010G14KT 10SM BKN030 BKN035 32/23 A2999 RMK AO2 T03160227
KJES 231535Z AUTO 29006G16KT 10SM SCT028 BKN037 31/23 A2999 RMK AO2 T03120227
KJES 231515Z AUTO 28009KT 240V310 10SM BKN026 OVC036 31/23 A2999 RMK AO2 T03080230
KJES 231455Z AUTO 28006KT 10SM OVC026 30/23 A2998 RMK AO2 T03040227
KJES 231435Z AUTO 29008KT 10SM OVC024 30/23 A2998 RMK AO2 T03040228
KJES 231415Z AUTO 28008KT 230V300 10SM BKN022 30/23 A2998 RMK AO2 T02980227
KJES 231355Z AUTO 28007G17KT 260V320 10SM BKN022 30/23 A2998 RMK AO2 T02950225
KJES 231335Z AUTO 28010G15KT 10SM SCT018 29/23 A2998 RMK AO2 T02930229
KJES 231315Z AUTO 27005KT 10SM SCT016 SCT021 29/23 A2999 RMK AO2 T02850231
KJES 231255Z AUTO 28005KT 10SM BKN014 28/23 A2998 RMK AO2 T02770230
KJES 231235Z AUTO 25005KT 10SM OVC012 27/23 A2998 RMK AO2 T02670231
KJES 231215Z AUTO 24003KT 10SM BKN012 26/23 A2998 RMK AO2 T02590228
KJES 231155Z AUTO 00000KT 10SM SCT010 25/23 A2997 RMK AO2 T02510226 10252 20235
KJES 231135Z AUTO 00000KT 7SM CLR 24/22 A2996 RMK AO2 T02440222
KJES 231115Z AUTO 00000KT 5SM BR CLR 24/22 A2995 RMK AO2 T02380219
KJES 231055Z AUTO 00000KT 5SM BR CLR 24/22 A2994 RMK AO2 T02360216
KJES 231035Z AUTO 00000KT 5SM BR CLR 24/22 A2993 RMK AO2 T02350215